sensor_id;sensor_type;location;lat;lon;timestamp;P1;durP1;ratioP1;P2;durP2;ratioP2
13588;SDS011;6865;52.552;13.434;2022-11-28T00:04:10;18.83;;;12.90;;
13588;SDS011;6865;52.552;13.434;2022-11-28T00:06:41;20.63;;;12.23;;
13588;SDS011;6865;52.552;13.434;2022-11-28T00:09:14;20.13;;;11.53;;
13588;SDS011;6865;52.552;13.434;2022-11-28T00:11:43;20.47;;;11.37;;
13588;SDS011;6865;52.552;13.434;2022-11-28T00:14:11;18.17;;;11.73;;
13588;SDS011;6865;52.552;13.434;2022-11-28T00:16:38;18.87;;;12.40;;
13588;SDS011;6865;52.552;13.434;2022-11-28T00:19:05;18.33;;;11.73;;
13588;SDS011;6865;52.552;13.434;2022-11-28T00:21:33;19.47;;;12.40;;
13588;SDS011;6865;52.552;13.434;2022-11-28T00:24:00;18.73;;;12.53;;
13588;SDS011;6865;52.552;13.434;2022-11-28T00:26:31;17.13;;;12.20;;
13588;SDS011;6865;52.552;13.434;2022-11-28T00:28:59;18.57;;;12.27;;
13588;SDS011;6865;52.552;13.434;2022-11-28T00:31:30;19.27;;;12.83;;
13588;SDS011;6865;52.552;13.434;2022-11-28T00:33:58;20.33;;;12.47;;
13588;SDS011;6865;52.552;13.434;2022-11-28T00:36:27;21.77;;;13.17;;
13588;SDS011;6865;52.552;13.434;2022-11-28T00:38:54;17.23;;;11.90;;
13588;SDS011;6865;52.552;13.434;2022-11-28T00:41:22;22.47;;;12.73;;
13588;SDS011;6865;52.552;13.434;2022-11-28T00:43:51;19.77;;;12.57;;
13588;SDS011;6865;52.552;13.434;2022-11-28T00:46:18;19.67;;;12.40;;
13588;SDS011;6865;52.552;13.434;2022-11-28T00:48:46;16.83;;;12.33;;
13588;SDS011;6865;52.552;13.434;2022-11-28T00:51:14;20.40;;;13.00;;
13588;SDS011;6865;52.552;13.434;2022-11-28T00:53:46;22.00;;;13.10;;
13588;SDS011;6865;52.552;13.434;2022-11-28T00:56:15;17.00;;;11.53;;
13588;SDS011;6865;52.552;13.434;2022-11-28T00:58:43;17.03;;;11.57;;
13588;SDS011;6865;52.552;13.434;2022-11-28T01:01:14;18.67;;;12.07;;
13588;SDS011;6865;52.552;13.434;2022-11-28T01:03:43;18.60;;;12.53;;
13588;SDS011;6865;52.552;13.434;2022-11-28T01:06:11;20.07;;;12.47;;
13588;SDS011;6865;52.552;13.434;2022-11-28T01:08:38;16.23;;;12.10;;
13588;SDS011;6865;52.552;13.434;2022-11-28T01:11:09;21.30;;;14.60;;
13588;SDS011;6865;52.552;13.434;2022-11-28T01:13:38;19.53;;;12.63;;
13588;SDS011;6865;52.552;13.434;2022-11-28T01:16:06;17.70;;;12.33;;
13588;SDS011;6865;52.552;13.434;2022-11-28T01:18:34;17.87;;;13.03;;
13588;SDS011;6865;52.552;13.434;2022-11-28T01:21:02;17.97;;;11.90;;
13588;SDS011;6865;52.552;13.434;2022-11-28T01:23:29;18.83;;;11.90;;
13588;SDS011;6865;52.552;13.434;2022-11-28T01:25:55;19.57;;;11.90;;
13588;SDS011;6865;52.552;13.434;2022-11-28T01:28:22;16.20;;;11.90;;
13588;SDS011;6865;52.552;13.434;2022-11-28T01:30:49;16.80;;;11.73;;
13588;SDS011;6865;52.552;13.434;2022-11-28T01:33:15;15.03;;;11.07;;
13588;SDS011;6865;52.552;13.434;2022-11-28T01:35:42;15.67;;;11.77;;
13588;SDS011;6865;52.552;13.434;2022-11-28T01:38:18;15.80;;;11.10;;
13588;SDS011;6865;52.552;13.434;2022-11-28T01:40:45;16.23;;;11.07;;
13588;SDS011;6865;52.552;13.434;2022-11-28T01:43:11;18.60;;;11.30;;
13588;SDS011;6865;52.552;13.434;2022-11-28T01:45:38;17.50;;;11.40;;
13588;SDS011;6865;52.552;13.434;2022-11-28T01:48:05;16.37;;;11.03;;
13588;SDS011;6865;52.552;13.434;2022-11-28T01:50:34;17.10;;;11.10;;
13588;SDS011;6865;52.552;13.434;2022-11-28T01:53:03;16.57;;;10.77;;
13588;SDS011;6865;52.552;13.434;2022-11-28T01:55:47;16.20;;;11.77;;
13588;SDS011;6865;52.552;13.434;2022-11-28T01:58:19;16.37;;;11.10;;
13588;SDS011;6865;52.552;13.434;2022-11-28T02:00:46;15.30;;;10.33;;
13588;SDS011;6865;52.552;13.434;2022-11-28T02:03:14;15.27;;;10.30;;
13588;SDS011;6865;52.552;13.434;2022-11-28T02:05:46;17.13;;;10.80;;
13588;SDS011;6865;52.552;13.434;2022-11-28T02:08:15;14.73;;;10.43;;
13588;SDS011;6865;52.552;13.434;2022-11-28T02:13:43;14.10;;;10.43;;
13588;SDS011;6865;52.552;13.434;2022-11-28T02:19:23;16.37;;;10.53;;
13588;SDS011;6865;52.552;13.434;2022-11-28T02:22:11;16.00;;;11.37;;
13588;SDS011;6865;52.552;13.434;2022-11-28T02:25:10;14.40;;;9.23;;
13588;SDS011;6865;52.552;13.434;2022-11-28T02:30:40;14.33;;;10.17;;
13588;SDS011;6865;52.552;13.434;2022-11-28T02:33:30;13.40;;;9.93;;
13588;SDS011;6865;52.552;13.434;2022-11-28T02:36:09;15.60;;;10.17;;
13588;SDS011;6865;52.552;13.434;2022-11-28T02:38:56;14.27;;;10.30;;
13588;SDS011;6865;52.552;13.434;2022-11-28T02:41:48;15.53;;;11.10;;
13588;SDS011;6865;52.552;13.434;2022-11-28T02:44:28;17.07;;;10.87;;
13588;SDS011;6865;52.552;13.434;2022-11-28T02:47:04;12.83;;;10.13;;
13588;SDS011;6865;52.552;13.434;2022-11-28T02:49:46;14.23;;;10.07;;
13588;SDS011;6865;52.552;13.434;2022-11-28T02:52:36;14.57;;;10.33;;
13588;SDS011;6865;52.552;13.434;2022-11-28T02:55:06;15.20;;;10.20;;
13588;SDS011;6865;52.552;13.434;2022-11-28T02:57:37;16.50;;;11.17;;
13588;SDS011;6865;52.552;13.434;2022-11-28T03:00:21;15.40;;;10.50;;
13588;SDS011;6865;52.552;13.434;2022-11-28T03:03:09;16.87;;;11.43;;
13588;SDS011;6865;52.552;13.434;2022-11-28T03:11:14;15.87;;;10.90;;
13588;SDS011;6865;52.552;13.434;2022-11-28T03:16:27;17.20;;;11.57;;
13588;SDS011;6865;52.552;13.434;2022-11-28T03:19:00;18.80;;;12.37;;
13588;SDS011;6865;52.552;13.434;2022-11-28T03:21:37;19.47;;;12.70;;
13588;SDS011;6865;52.552;13.434;2022-11-28T03:24:19;19.27;;;11.43;;
13588;SDS011;6865;52.552;13.434;2022-11-28T03:26:57;17.63;;;11.70;;
13588;SDS011;6865;52.552;13.434;2022-11-28T03:29:33;18.33;;;13.27;;
13588;SDS011;6865;52.552;13.434;2022-11-28T03:32:12;18.13;;;12.77;;
13588;SDS011;6865;52.552;13.434;2022-11-28T03:34:52;19.90;;;13.17;;
13588;SDS011;6865;52.552;13.434;2022-11-28T03:37:27;24.27;;;14.33;;
13588;SDS011;6865;52.552;13.434;2022-11-28T03:39:58;19.53;;;13.40;;
13588;SDS011;6865;52.552;13.434;2022-11-28T03:42:29;18.43;;;12.77;;
13588;SDS011;6865;52.552;13.434;2022-11-28T03:45:10;22.33;;;13.00;;
13588;SDS011;6865;52.552;13.434;2022-11-28T03:47:46;21.07;;;12.83;;
13588;SDS011;6865;52.552;13.434;2022-11-28T03:50:24;18.93;;;13.17;;
13588;SDS011;6865;52.552;13.434;2022-11-28T03:52:57;21.40;;;13.93;;
13588;SDS011;6865;52.552;13.434;2022-11-28T03:55:29;19.10;;;12.97;;
13588;SDS011;6865;52.552;13.434;2022-11-28T03:58:18;20.93;;;13.33;;
13588;SDS011;6865;52.552;13.434;2022-11-28T04:00:58;20.50;;;13.30;;
13588;SDS011;6865;52.552;13.434;2022-11-28T04:03:53;22.07;;;13.80;;
13588;SDS011;6865;52.552;13.434;2022-11-28T04:06:26;20.43;;;12.83;;
13588;SDS011;6865;52.552;13.434;2022-11-28T04:08:59;19.20;;;12.83;;
13588;SDS011;6865;52.552;13.434;2022-11-28T04:11:43;19.80;;;12.83;;
13588;SDS011;6865;52.552;13.434;2022-11-28T04:14:19;18.47;;;12.40;;
13588;SDS011;6865;52.552;13.434;2022-11-28T04:16:56;18.60;;;12.67;;
13588;SDS011;6865;52.552;13.434;2022-11-28T04:19:36;21.10;;;14.13;;
13588;SDS011;6865;52.552;13.434;2022-11-28T04:25:09;20.87;;;13.47;;
13588;SDS011;6865;52.552;13.434;2022-11-28T04:27:40;22.87;;;13.13;;
13588;SDS011;6865;52.552;13.434;2022-11-28T04:30:12;18.40;;;12.40;;
13588;SDS011;6865;52.552;13.434;2022-11-28T04:32:44;23.20;;;13.40;;
13588;SDS011;6865;52.552;13.434;2022-11-28T04:35:19;20.93;;;13.50;;
13588;SDS011;6865;52.552;13.434;2022-11-28T04:37:51;22.13;;;13.20;;
13588;SDS011;6865;52.552;13.434;2022-11-28T04:40:21;19.80;;;13.10;;
13588;SDS011;6865;52.552;13.434;2022-11-28T04:42:51;22.43;;;13.37;;
13588;SDS011;6865;52.552;13.434;2022-11-28T04:45:25;20.63;;;13.07;;
13588;SDS011;6865;52.552;13.434;2022-11-28T04:48:02;20.70;;;13.13;;
13588;SDS011;6865;52.552;13.434;2022-11-28T04:50:30;19.40;;;12.27;;
13588;SDS011;6865;52.552;13.434;2022-11-28T04:53:30;22.67;;;13.23;;
13588;SDS011;6865;52.552;13.434;2022-11-28T04:56:10;23.87;;;13.47;;
13588;SDS011;6865;52.552;13.434;2022-11-28T04:58:44;20.63;;;12.60;;
13588;SDS011;6865;52.552;13.434;2022-11-28T05:01:15;20.43;;;12.83;;
13588;SDS011;6865;52.552;13.434;2022-11-28T05:03:47;21.13;;;12.73;;
13588;SDS011;6865;52.552;13.434;2022-11-28T05:06:21;21.17;;;13.37;;
13588;SDS011;6865;52.552;13.434;2022-11-28T05:08:59;20.43;;;12.43;;
13588;SDS011;6865;52.552;13.434;2022-11-28T05:11:26;19.80;;;12.37;;
13588;SDS011;6865;52.552;13.434;2022-11-28T05:13:53;18.70;;;12.90;;
13588;SDS011;6865;52.552;13.434;2022-11-28T05:16:21;19.33;;;12.73;;
13588;SDS011;6865;52.552;13.434;2022-11-28T05:18:48;21.87;;;13.57;;
13588;SDS011;6865;52.552;13.434;2022-11-28T05:21:15;20.77;;;12.33;;
13588;SDS011;6865;52.552;13.434;2022-11-28T05:23:42;19.30;;;12.00;;
13588;SDS011;6865;52.552;13.434;2022-11-28T05:26:19;18.63;;;12.60;;
13588;SDS011;6865;52.552;13.434;2022-11-28T05:28:48;17.73;;;12.53;;
13588;SDS011;6865;52.552;13.434;2022-11-28T05:31:17;18.23;;;12.47;;
13588;SDS011;6865;52.552;13.434;2022-11-28T05:33:46;18.73;;;12.20;;
13588;SDS011;6865;52.552;13.434;2022-11-28T05:36:13;22.80;;;13.23;;
13588;SDS011;6865;52.552;13.434;2022-11-28T05:38:40;18.40;;;12.43;;
13588;SDS011;6865;52.552;13.434;2022-11-28T05:41:08;20.10;;;12.97;;
13588;SDS011;6865;52.552;13.434;2022-11-28T05:43:42;21.53;;;12.77;;
13588;SDS011;6865;52.552;13.434;2022-11-28T05:46:09;22.40;;;12.70;;
13588;SDS011;6865;52.552;13.434;2022-11-28T05:48:35;22.53;;;12.47;;
13588;SDS011;6865;52.552;13.434;2022-11-28T05:51:03;20.20;;;12.47;;
13588;SDS011;6865;52.552;13.434;2022-11-28T05:53:30;19.77;;;12.83;;
13588;SDS011;6865;52.552;13.434;2022-11-28T05:55:57;21.87;;;13.37;;
13588;SDS011;6865;52.552;13.434;2022-11-28T05:58:24;18.80;;;12.90;;
13588;SDS011;6865;52.552;13.434;2022-11-28T06:00:50;21.13;;;13.30;;
13588;SDS011;6865;52.552;13.434;2022-11-28T06:03:17;18.67;;;11.63;;
13588;SDS011;6865;52.552;13.434;2022-11-28T06:05:43;21.37;;;13.60;;
13588;SDS011;6865;52.552;13.434;2022-11-28T06:08:10;23.27;;;12.77;;
13588;SDS011;6865;52.552;13.434;2022-11-28T06:10:37;22.67;;;13.23;;
13588;SDS011;6865;52.552;13.434;2022-11-28T06:13:04;20.67;;;12.33;;
13588;SDS011;6865;52.552;13.434;2022-11-28T06:15:33;21.33;;;12.80;;
13588;SDS011;6865;52.552;13.434;2022-11-28T06:18:03;21.90;;;13.37;;
13588;SDS011;6865;52.552;13.434;2022-11-28T06:20:30;22.73;;;13.97;;
13588;SDS011;6865;52.552;13.434;2022-11-28T06:22:59;23.63;;;13.23;;
13588;SDS011;6865;52.552;13.434;2022-11-28T06:25:26;20.30;;;13.07;;
13588;SDS011;6865;52.552;13.434;2022-11-28T06:27:53;21.17;;;13.53;;
13588;SDS011;6865;52.552;13.434;2022-11-28T06:30:19;23.80;;;14.13;;
13588;SDS011;6865;52.552;13.434;2022-11-28T06:32:46;23.70;;;14.03;;
13588;SDS011;6865;52.552;13.434;2022-11-28T06:35:13;24.87;;;13.33;;
13588;SDS011;6865;52.552;13.434;2022-11-28T06:37:39;22.43;;;14.30;;
13588;SDS011;6865;52.552;13.434;2022-11-28T06:40:06;22.37;;;13.67;;
13588;SDS011;6865;52.552;13.434;2022-11-28T06:42:34;25.80;;;14.67;;
13588;SDS011;6865;52.552;13.434;2022-11-28T06:45:02;24.23;;;14.40;;
13588;SDS011;6865;52.552;13.434;2022-11-28T06:47:29;24.00;;;14.93;;
13588;SDS011;6865;52.552;13.434;2022-11-28T06:49:56;26.83;;;15.37;;
13588;SDS011;6865;52.552;13.434;2022-11-28T06:52:22;23.30;;;14.63;;
13588;SDS011;6865;52.552;13.434;2022-11-28T06:54:49;23.90;;;14.57;;
13588;SDS011;6865;52.552;13.434;2022-11-28T06:57:16;28.93;;;14.70;;
13588;SDS011;6865;52.552;13.434;2022-11-28T06:59:42;25.30;;;15.13;;
13588;SDS011;6865;52.552;13.434;2022-11-28T07:02:10;24.67;;;14.37;;
13588;SDS011;6865;52.552;13.434;2022-11-28T07:04:37;23.17;;;15.30;;
13588;SDS011;6865;52.552;13.434;2022-11-28T07:07:03;23.97;;;14.03;;
13588;SDS011;6865;52.552;13.434;2022-11-28T07:09:30;22.27;;;15.00;;
13588;SDS011;6865;52.552;13.434;2022-11-28T07:11:56;23.20;;;14.83;;
13588;SDS011;6865;52.552;13.434;2022-11-28T07:14:23;22.97;;;14.13;;
13588;SDS011;6865;52.552;13.434;2022-11-28T07:16:50;24.53;;;14.43;;
13588;SDS011;6865;52.552;13.434;2022-11-28T07:19:16;20.73;;;13.23;;
13588;SDS011;6865;52.552;13.434;2022-11-28T07:21:48;25.07;;;14.93;;
13588;SDS011;6865;52.552;13.434;2022-11-28T07:24:16;22.97;;;14.33;;
13588;SDS011;6865;52.552;13.434;2022-11-28T07:26:44;23.73;;;13.97;;
13588;SDS011;6865;52.552;13.434;2022-11-28T07:29:14;27.73;;;15.33;;
13588;SDS011;6865;52.552;13.434;2022-11-28T07:31:42;24.50;;;14.07;;
13588;SDS011;6865;52.552;13.434;2022-11-28T07:34:09;24.07;;;13.97;;
13588;SDS011;6865;52.552;13.434;2022-11-28T07:36:36;25.90;;;14.63;;
13588;SDS011;6865;52.552;13.434;2022-11-28T07:39:04;24.20;;;14.43;;
13588;SDS011;6865;52.552;13.434;2022-11-28T07:41:33;22.27;;;13.67;;
13588;SDS011;6865;52.552;13.434;2022-11-28T07:44:01;21.37;;;13.60;;
13588;SDS011;6865;52.552;13.434;2022-11-28T07:46:29;25.63;;;14.37;;
13588;SDS011;6865;52.552;13.434;2022-11-28T07:48:57;25.00;;;15.60;;
13588;SDS011;6865;52.552;13.434;2022-11-28T07:51:25;22.83;;;13.30;;
13588;SDS011;6865;52.552;13.434;2022-11-28T07:53:53;24.80;;;14.30;;
13588;SDS011;6865;52.552;13.434;2022-11-28T07:56:22;26.53;;;14.63;;
13588;SDS011;6865;52.552;13.434;2022-11-28T07:58:50;27.93;;;14.77;;
13588;SDS011;6865;52.552;13.434;2022-11-28T08:01:21;20.30;;;12.47;;
13588;SDS011;6865;52.552;13.434;2022-11-28T08:03:49;23.13;;;13.90;;
13588;SDS011;6865;52.552;13.434;2022-11-28T08:06:18;25.23;;;13.57;;
13588;SDS011;6865;52.552;13.434;2022-11-28T08:08:47;22.20;;;13.57;;
13588;SDS011;6865;52.552;13.434;2022-11-28T08:11:15;24.57;;;13.57;;
13588;SDS011;6865;52.552;13.434;2022-11-28T08:13:43;24.00;;;13.40;;
13588;SDS011;6865;52.552;13.434;2022-11-28T08:16:11;23.33;;;13.30;;
13588;SDS011;6865;52.552;13.434;2022-11-28T08:18:42;21.83;;;13.97;;
13588;SDS011;6865;52.552;13.434;2022-11-28T08:21:11;21.27;;;13.07;;
13588;SDS011;6865;52.552;13.434;2022-11-28T08:23:39;21.93;;;13.23;;
13588;SDS011;6865;52.552;13.434;2022-11-28T08:26:07;23.67;;;13.70;;
13588;SDS011;6865;52.552;13.434;2022-11-28T08:28:36;20.70;;;13.43;;
13588;SDS011;6865;52.552;13.434;2022-11-28T08:31:10;19.97;;;13.47;;
13588;SDS011;6865;52.552;13.434;2022-11-28T08:33:41;23.57;;;13.63;;
13588;SDS011;6865;52.552;13.434;2022-11-28T08:36:10;23.97;;;14.13;;
13588;SDS011;6865;52.552;13.434;2022-11-28T08:38:38;23.63;;;14.13;;
13588;SDS011;6865;52.552;13.434;2022-11-28T08:41:06;25.47;;;14.77;;
13588;SDS011;6865;52.552;13.434;2022-11-28T08:43:36;24.63;;;15.43;;
13588;SDS011;6865;52.552;13.434;2022-11-28T08:46:03;27.80;;;14.60;;
13588;SDS011;6865;52.552;13.434;2022-11-28T08:48:33;21.60;;;13.33;;
13588;SDS011;6865;52.552;13.434;2022-11-28T08:51:00;25.27;;;14.77;;
13588;SDS011;6865;52.552;13.434;2022-11-28T08:53:27;23.43;;;13.67;;
13588;SDS011;6865;52.552;13.434;2022-11-28T08:55:53;23.63;;;13.53;;
13588;SDS011;6865;52.552;13.434;2022-11-28T08:58:20;18.83;;;13.00;;
13588;SDS011;6865;52.552;13.434;2022-11-28T09:00:47;25.50;;;14.00;;
13588;SDS011;6865;52.552;13.434;2022-11-28T09:03:15;20.97;;;13.40;;
13588;SDS011;6865;52.552;13.434;2022-11-28T09:05:43;26.40;;;14.33;;
13588;SDS011;6865;52.552;13.434;2022-11-28T09:08:11;22.60;;;14.27;;
13588;SDS011;6865;52.552;13.434;2022-11-28T09:10:39;24.27;;;14.70;;
13588;SDS011;6865;52.552;13.434;2022-11-28T09:13:08;26.40;;;14.80;;
13588;SDS011;6865;52.552;13.434;2022-11-28T09:15:43;31.13;;;18.60;;
13588;SDS011;6865;52.552;13.434;2022-11-28T09:18:16;25.43;;;15.17;;
13588;SDS011;6865;52.552;13.434;2022-11-28T09:20:43;24.33;;;13.53;;
13588;SDS011;6865;52.552;13.434;2022-11-28T09:23:09;24.00;;;14.60;;
13588;SDS011;6865;52.552;13.434;2022-11-28T09:25:36;25.53;;;16.57;;
13588;SDS011;6865;52.552;13.434;2022-11-28T09:28:04;22.83;;;14.17;;
13588;SDS011;6865;52.552;13.434;2022-11-28T09:30:32;23.73;;;14.17;;
13588;SDS011;6865;52.552;13.434;2022-11-28T09:32:59;22.70;;;13.77;;
13588;SDS011;6865;52.552;13.434;2022-11-28T09:35:25;20.50;;;13.07;;
13588;SDS011;6865;52.552;13.434;2022-11-28T09:37:52;27.00;;;13.83;;
13588;SDS011;6865;52.552;13.434;2022-11-28T09:40:22;24.20;;;13.97;;
13588;SDS011;6865;52.552;13.434;2022-11-28T09:43:02;24.03;;;14.30;;
13588;SDS011;6865;52.552;13.434;2022-11-28T09:45:36;21.63;;;13.80;;
13588;SDS011;6865;52.552;13.434;2022-11-28T09:50:56;22.43;;;13.30;;
13588;SDS011;6865;52.552;13.434;2022-11-28T09:53:49;20.50;;;14.13;;
13588;SDS011;6865;52.552;13.434;2022-11-28T09:56:27;22.90;;;13.67;;
13588;SDS011;6865;52.552;13.434;2022-11-28T09:58:54;21.13;;;13.10;;
13588;SDS011;6865;52.552;13.434;2022-11-28T10:01:32;24.20;;;13.83;;
13588;SDS011;6865;52.552;13.434;2022-11-28T10:07:26;23.17;;;13.77;;
13588;SDS011;6865;52.552;13.434;2022-11-28T10:13:20;26.10;;;14.97;;
13588;SDS011;6865;52.552;13.434;2022-11-28T10:19:10;25.73;;;15.10;;
13588;SDS011;6865;52.552;13.434;2022-11-28T10:22:04;32.30;;;16.33;;
13588;SDS011;6865;52.552;13.434;2022-11-28T10:24:47;26.33;;;15.40;;
13588;SDS011;6865;52.552;13.434;2022-11-28T10:27:20;25.93;;;15.37;;
13588;SDS011;6865;52.552;13.434;2022-11-28T10:29:56;23.43;;;14.77;;
13588;SDS011;6865;52.552;13.434;2022-11-28T10:32:39;25.40;;;15.13;;
13588;SDS011;6865;52.552;13.434;2022-11-28T10:35:16;24.70;;;14.47;;
13588;SDS011;6865;52.552;13.434;2022-11-28T10:38:01;25.13;;;14.50;;
13588;SDS011;6865;52.552;13.434;2022-11-28T10:40:33;24.90;;;14.80;;
13588;SDS011;6865;52.552;13.434;2022-11-28T10:44:11;26.30;;;15.47;;
13588;SDS011;6865;52.552;13.434;2022-11-28T10:46:32;27.40;;;14.57;;
13588;SDS011;6865;52.552;13.434;2022-11-28T10:49:25;28.93;;;14.43;;
13588;SDS011;6865;52.552;13.434;2022-11-28T10:52:05;23.40;;;14.17;;
13588;SDS011;6865;52.552;13.434;2022-11-28T10:54:45;24.20;;;14.70;;
13588;SDS011;6865;52.552;13.434;2022-11-28T10:57:52;25.80;;;14.37;;
13588;SDS011;6865;52.552;13.434;2022-11-28T11:00:53;25.10;;;14.43;;
13588;SDS011;6865;52.552;13.434;2022-11-28T11:03:32;23.77;;;14.20;;
13588;SDS011;6865;52.552;13.434;2022-11-28T11:06:03;26.63;;;14.17;;
13588;SDS011;6865;52.552;13.434;2022-11-28T11:08:34;25.17;;;14.57;;
13588;SDS011;6865;52.552;13.434;2022-11-28T11:11:04;22.57;;;13.33;;
13588;SDS011;6865;52.552;13.434;2022-11-28T11:14:05;23.70;;;13.90;;
13588;SDS011;6865;52.552;13.434;2022-11-28T11:16:49;25.83;;;14.77;;
13588;SDS011;6865;52.552;13.434;2022-11-28T11:19:32;24.43;;;14.53;;
13588;SDS011;6865;52.552;13.434;2022-11-28T11:25:04;25.30;;;14.67;;
13588;SDS011;6865;52.552;13.434;2022-11-28T11:27:33;24.90;;;13.93;;
13588;SDS011;6865;52.552;13.434;2022-11-28T11:30:14;23.97;;;14.23;;
13588;SDS011;6865;52.552;13.434;2022-11-28T11:33:02;24.10;;;13.43;;
13588;SDS011;6865;52.552;13.434;2022-11-28T11:35:33;25.00;;;13.90;;
13588;SDS011;6865;52.552;13.434;2022-11-28T11:38:15;22.33;;;13.43;;
13588;SDS011;6865;52.552;13.434;2022-11-28T11:40:51;26.13;;;13.73;;
13588;SDS011;6865;52.552;13.434;2022-11-28T11:43:31;22.03;;;13.87;;
13588;SDS011;6865;52.552;13.434;2022-11-28T11:48:38;20.57;;;13.27;;
13588;SDS011;6865;52.552;13.434;2022-11-28T11:51:28;23.77;;;13.37;;
13588;SDS011;6865;52.552;13.434;2022-11-28T11:54:05;22.50;;;13.43;;
13588;SDS011;6865;52.552;13.434;2022-11-28T11:56:38;23.17;;;13.10;;
13588;SDS011;6865;52.552;13.434;2022-11-28T12:02:22;22.23;;;13.53;;
13588;SDS011;6865;52.552;13.434;2022-11-28T12:05:10;23.47;;;12.67;;
13588;SDS011;6865;52.552;13.434;2022-11-28T12:07:53;21.90;;;12.73;;
13588;SDS011;6865;52.552;13.434;2022-11-28T12:10:34;21.67;;;12.30;;
13588;SDS011;6865;52.552;13.434;2022-11-28T12:13:12;18.90;;;12.10;;
13588;SDS011;6865;52.552;13.434;2022-11-28T12:15:57;19.83;;;12.27;;
13588;SDS011;6865;52.552;13.434;2022-11-28T12:21:35;23.63;;;12.57;;
13588;SDS011;6865;52.552;13.434;2022-11-28T12:24:38;18.40;;;12.17;;
13588;SDS011;6865;52.552;13.434;2022-11-28T12:27:19;20.03;;;11.97;;
13588;SDS011;6865;52.552;13.434;2022-11-28T12:33:16;21.53;;;12.03;;
13588;SDS011;6865;52.552;13.434;2022-11-28T12:41:55;22.90;;;13.47;;
13588;SDS011;6865;52.552;13.434;2022-11-28T12:47:27;23.53;;;12.40;;
13588;SDS011;6865;52.552;13.434;2022-11-28T12:50:20;21.33;;;12.67;;
13588;SDS011;6865;52.552;13.434;2022-11-28T12:58:32;24.80;;;15.40;;
13588;SDS011;6865;52.552;13.434;2022-11-28T13:01:24;26.70;;;16.33;;
13588;SDS011;6865;52.552;13.434;2022-11-28T13:07:09;35.50;;;19.47;;
13588;SDS011;6865;52.552;13.434;2022-11-28T13:12:46;27.07;;;16.47;;
13588;SDS011;6865;52.552;13.434;2022-11-28T13:15:50;29.50;;;16.20;;
13588;SDS011;6865;52.552;13.434;2022-11-28T13:18:40;26.70;;;16.03;;
13588;SDS011;6865;52.552;13.434;2022-11-28T13:21:18;27.03;;;15.80;;
13588;SDS011;6865;52.552;13.434;2022-11-28T13:24:10;26.27;;;15.43;;
13588;SDS011;6865;52.552;13.434;2022-11-28T13:26:54;24.33;;;14.97;;
13588;SDS011;6865;52.552;13.434;2022-11-28T13:31:58;26.80;;;16.07;;
13588;SDS011;6865;52.552;13.434;2022-11-28T13:34:36;28.73;;;16.07;;
13588;SDS011;6865;52.552;13.434;2022-11-28T13:37:06;25.93;;;16.07;;
13588;SDS011;6865;52.552;13.434;2022-11-28T13:40:19;28.93;;;16.63;;
13588;SDS011;6865;52.552;13.434;2022-11-28T13:43:01;26.20;;;15.93;;
13588;SDS011;6865;52.552;13.434;2022-11-28T13:45:43;26.90;;;16.73;;
13588;SDS011;6865;52.552;13.434;2022-11-28T13:51:23;30.57;;;17.50;;
13588;SDS011;6865;52.552;13.434;2022-11-28T13:56:42;30.90;;;18.67;;
13588;SDS011;6865;52.552;13.434;2022-11-28T13:59:18;32.73;;;17.83;;
13588;SDS011;6865;52.552;13.434;2022-11-28T14:01:47;28.87;;;16.83;;
13588;SDS011;6865;52.552;13.434;2022-11-28T14:04:22;31.13;;;18.90;;
13588;SDS011;6865;52.552;13.434;2022-11-28T14:06:58;33.40;;;18.13;;
13588;SDS011;6865;52.552;13.434;2022-11-28T14:09:35;28.87;;;18.57;;
13588;SDS011;6865;52.552;13.434;2022-11-28T14:12:19;30.13;;;17.33;;
13588;SDS011;6865;52.552;13.434;2022-11-28T14:18:21;31.47;;;19.27;;
13588;SDS011;6865;52.552;13.434;2022-11-28T14:21:02;35.60;;;20.63;;
13588;SDS011;6865;52.552;13.434;2022-11-28T14:26:12;31.43;;;18.93;;
13588;SDS011;6865;52.552;13.434;2022-11-28T14:28:48;37.60;;;21.97;;
13588;SDS011;6865;52.552;13.434;2022-11-28T14:31:30;33.67;;;20.80;;
13588;SDS011;6865;52.552;13.434;2022-11-28T14:36:31;32.63;;;20.60;;
13588;SDS011;6865;52.552;13.434;2022-11-28T14:39:04;33.63;;;20.53;;
13588;SDS011;6865;52.552;13.434;2022-11-28T14:47:31;35.57;;;20.47;;
13588;SDS011;6865;52.552;13.434;2022-11-28T14:52:42;33.30;;;20.40;;
13588;SDS011;6865;52.552;13.434;2022-11-28T14:55:17;31.67;;;19.00;;
13588;SDS011;6865;52.552;13.434;2022-11-28T14:57:51;35.57;;;20.17;;
13588;SDS011;6865;52.552;13.434;2022-11-28T15:00:23;34.13;;;20.77;;
13588;SDS011;6865;52.552;13.434;2022-11-28T15:03:12;34.17;;;19.97;;
13588;SDS011;6865;52.552;13.434;2022-11-28T15:06:16;35.77;;;20.90;;
13588;SDS011;6865;52.552;13.434;2022-11-28T15:08:58;34.00;;;19.90;;
13588;SDS011;6865;52.552;13.434;2022-11-28T15:11:39;34.53;;;20.83;;
13588;SDS011;6865;52.552;13.434;2022-11-28T15:14:24;36.20;;;19.80;;
13588;SDS011;6865;52.552;13.434;2022-11-28T15:16:56;34.93;;;20.60;;
13588;SDS011;6865;52.552;13.434;2022-11-28T15:19:29;31.23;;;20.53;;
13588;SDS011;6865;52.552;13.434;2022-11-28T15:21:59;34.80;;;21.40;;
13588;SDS011;6865;52.552;13.434;2022-11-28T15:24:33;32.00;;;19.53;;
13588;SDS011;6865;52.552;13.434;2022-11-28T15:29:34;34.40;;;19.97;;
13588;SDS011;6865;52.552;13.434;2022-11-28T15:32:01;33.70;;;19.90;;
13588;SDS011;6865;52.552;13.434;2022-11-28T15:34:29;31.70;;;19.00;;
13588;SDS011;6865;52.552;13.434;2022-11-28T15:36:59;34.47;;;20.43;;
13588;SDS011;6865;52.552;13.434;2022-11-28T15:39:38;31.97;;;19.63;;
13588;SDS011;6865;52.552;13.434;2022-11-28T15:42:07;30.07;;;19.20;;
13588;SDS011;6865;52.552;13.434;2022-11-28T15:44:44;31.03;;;18.93;;
13588;SDS011;6865;52.552;13.434;2022-11-28T15:47:18;34.50;;;19.93;;
13588;SDS011;6865;52.552;13.434;2022-11-28T15:49:56;33.73;;;20.20;;
13588;SDS011;6865;52.552;13.434;2022-11-28T15:52:53;33.37;;;19.53;;
13588;SDS011;6865;52.552;13.434;2022-11-28T15:55:28;33.67;;;19.27;;
13588;SDS011;6865;52.552;13.434;2022-11-28T15:58:09;33.00;;;19.50;;
13588;SDS011;6865;52.552;13.434;2022-11-28T16:00:38;34.70;;;19.90;;
13588;SDS011;6865;52.552;13.434;2022-11-28T16:03:12;37.23;;;19.20;;
13588;SDS011;6865;52.552;13.434;2022-11-28T16:05:43;34.70;;;19.47;;
13588;SDS011;6865;52.552;13.434;2022-11-28T16:08:18;32.17;;;19.37;;
13588;SDS011;6865;52.552;13.434;2022-11-28T16:10:53;32.27;;;19.10;;
13588;SDS011;6865;52.552;13.434;2022-11-28T16:13:21;29.83;;;19.10;;
13588;SDS011;6865;52.552;13.434;2022-11-28T16:15:50;35.30;;;19.93;;
13588;SDS011;6865;52.552;13.434;2022-11-28T16:18:20;32.67;;;20.30;;
13588;SDS011;6865;52.552;13.434;2022-11-28T16:20:47;36.73;;;20.60;;
13588;SDS011;6865;52.552;13.434;2022-11-28T16:23:35;37.10;;;21.00;;
13588;SDS011;6865;52.552;13.434;2022-11-28T16:26:04;35.17;;;19.17;;
13588;SDS011;6865;52.552;13.434;2022-11-28T16:31:33;36.67;;;20.37;;
13588;SDS011;6865;52.552;13.434;2022-11-28T16:34:01;34.30;;;19.50;;
13588;SDS011;6865;52.552;13.434;2022-11-28T16:39:03;32.03;;;19.63;;
13588;SDS011;6865;52.552;13.434;2022-11-28T16:41:36;31.67;;;19.40;;
13588;SDS011;6865;52.552;13.434;2022-11-28T16:44:11;36.83;;;20.60;;